createdAt,value
2019-03-11T00:00:12.326Z,63.56
2019-03-11T00:02:45.525Z,63.58
2019-03-11T00:05:17.191Z,63.11
2019-03-11T00:07:48.954Z,63.22
2019-03-11T00:10:20.615Z,63.07
2019-03-11T00:12:52.393Z,63.24
2019-03-11T00:15:24.038Z,63.54
2019-03-11T00:17:56.524Z,63.58
2019-03-11T00:20:28.143Z,63.73
2019-03-11T00:22:59.821Z,63.77
2019-03-11T00:25:31.595Z,63.90
2019-03-11T00:28:03.306Z,64.25
2019-03-11T00:30:35.021Z,64.31
2019-03-11T00:33:06.665Z,64.25
2019-03-11T00:35:38.325Z,63.76
2019-03-11T00:38:10.941Z,63.97
2019-03-11T00:40:42.770Z,63.91
2019-03-11T00:43:14.505Z,63.98
2019-03-11T00:45:46.304Z,64.20
2019-03-11T00:48:18.005Z,64.23
2019-03-11T00:50:49.735Z,64.28
2019-03-11T00:53:21.640Z,64.58
2019-03-11T00:55:53.349Z,64.86
2019-03-11T00:58:25.149Z,64.80
2019-03-11T01:00:56.902Z,64.81
2019-03-11T01:03:28.583Z,64.99
2019-03-11T01:06:00.346Z,64.99
2019-03-11T01:08:32.037Z,64.96
2019-03-11T01:11:03.818Z,65.09
2019-03-11T01:13:35.330Z,65.03
2019-03-11T01:16:07.123Z,65.49
2019-03-11T01:18:38.935Z,65.66
2019-03-11T01:21:10.565Z,65.59
2019-03-11T01:23:42.388Z,65.68
2019-03-11T01:26:14.097Z,65.51
2019-03-11T01:28:45.933Z,65.41
2019-03-11T01:31:17.597Z,64.80
2019-03-11T01:33:49.375Z,64.37
2019-03-11T01:36:21.033Z,64.56
2019-03-11T01:38:52.645Z,64.25
2019-03-11T01:41:24.313Z,63.57
2019-03-11T01:43:56.072Z,62.87
2019-03-11T01:46:27.775Z,62.56
2019-03-11T01:48:59.414Z,61.51
2019-03-11T01:51:31.112Z,60.88
2019-03-11T01:54:02.643Z,60.29
2019-03-11T01:56:34.409Z,59.45
2019-03-11T01:59:07.221Z,59.34
2019-03-11T02:01:39.044Z,59.26
2019-03-11T02:04:10.752Z,57.84
2019-03-11T02:06:42.456Z,57.36
2019-03-11T02:09:15.126Z,57.14
2019-03-11T02:11:46.808Z,57.06
2019-03-11T02:14:18.617Z,56.44
2019-03-11T02:16:50.469Z,55.39
2019-03-11T02:19:22.128Z,54.47
2019-03-11T02:21:53.825Z,54.03
2019-03-11T02:24:25.558Z,53.95
2019-03-11T02:26:57.269Z,53.02
2019-03-11T02:29:28.941Z,52.30
2019-03-11T02:32:00.626Z,51.66
2019-03-11T02:34:32.410Z,51.15
2019-03-11T02:37:04.218Z,51.08
2019-03-11T02:39:35.881Z,50.98
2019-03-11T02:42:07.720Z,50.67
2019-03-11T02:44:39.347Z,50.78
2019-03-11T02:47:11.055Z,50.91
2019-03-11T02:49:44.163Z,50.95
2019-03-11T02:52:16.195Z,51.17
2019-03-11T02:54:47.947Z,50.96
2019-03-11T02:57:19.830Z,51.33
2019-03-11T02:59:51.580Z,51.48
2019-03-11T03:02:50.789Z,51.59
2019-03-11T03:05:27.410Z,51.61
2019-03-11T03:08:01.926Z,51.66
2019-03-11T03:10:33.519Z,51.90
2019-03-11T03:13:05.144Z,51.92
2019-03-11T03:15:36.793Z,52.09
2019-03-11T03:18:08.454Z,52.32
2019-03-11T03:20:40.684Z,52.63
2019-03-11T03:23:12.352Z,52.57
2019-03-11T03:25:43.962Z,52.55
2019-03-11T03:28:15.795Z,52.08
2019-03-11T03:30:47.415Z,51.94
2019-03-11T03:33:19.123Z,52.08
2019-03-11T03:35:50.914Z,51.93
2019-03-11T03:38:30.368Z,51.94
2019-03-11T03:40:55.910Z,51.88
2019-03-11T03:43:27.521Z,51.77
2019-03-11T03:45:59.189Z,52.02
2019-03-11T03:48:31.155Z,51.98
2019-03-11T03:51:02.934Z,52.13
2019-03-11T03:53:34.844Z,51.73
2019-03-11T03:56:06.648Z,51.91
2019-03-11T03:58:38.276Z,51.49
2019-03-11T04:01:10.471Z,51.45
2019-03-11T04:03:42.078Z,51.38
2019-03-11T04:06:14.698Z,51.00
2019-03-11T04:08:47.994Z,50.76
2019-03-11T04:11:20.845Z,50.86
2019-03-11T04:13:52.651Z,51.17
2019-03-11T04:16:24.300Z,51.52
2019-03-11T04:18:57.692Z,51.83
2019-03-11T04:21:29.396Z,51.95
2019-03-11T04:24:01.094Z,52.41
2019-03-11T04:26:33.421Z,52.67
2019-03-11T04:29:05.138Z,52.70
2019-03-11T04:31:36.905Z,52.96
2019-03-11T04:34:08.505Z,53.06
2019-03-11T04:36:40.213Z,53.38
2019-03-11T04:39:11.864Z,53.40
2019-03-11T04:41:43.566Z,53.66
2019-03-11T04:44:15.321Z,54.03
2019-03-11T04:46:48.183Z,54.50
2019-03-11T04:49:19.802Z,54.77
2019-03-11T04:51:51.383Z,54.71
2019-03-11T04:54:22.963Z,54.11
2019-03-11T04:56:54.678Z,54.08
2019-03-11T04:59:26.447Z,54.47
2019-03-11T05:01:58.060Z,54.28
2019-03-11T05:04:29.672Z,54.18
2019-03-11T05:07:01.295Z,53.99
2019-03-11T05:09:33.102Z,54.05
2019-03-11T05:12:05.004Z,54.05
2019-03-11T05:14:36.774Z,54.01
2019-03-11T05:17:08.561Z,54.02
2019-03-11T05:19:40.578Z,54.23
2019-03-11T05:22:12.281Z,54.36
2019-03-11T05:24:43.912Z,54.74
2019-03-11T05:27:15.624Z,54.82
2019-03-11T05:29:47.284Z,55.16
2019-03-11T05:32:18.985Z,54.93
2019-03-11T05:34:51.092Z,55.05
2019-03-11T05:37:22.697Z,55.01
2019-03-11T05:39:54.237Z,55.69
2019-03-11T05:42:25.813Z,55.91
2019-03-11T05:44:57.672Z,55.69
2019-03-11T05:47:29.566Z,55.69
2019-03-11T05:50:01.332Z,55.27
2019-03-11T05:52:33.257Z,55.34
2019-03-11T05:55:05.027Z,55.30
2019-03-11T05:57:36.667Z,55.06
2019-03-11T06:00:11.261Z,54.57
2019-03-11T06:02:42.934Z,54.19
2019-03-11T06:05:14.919Z,54.48
2019-03-11T06:07:46.623Z,54.14
2019-03-11T06:10:19.186Z,54.46
2019-03-11T06:12:51.101Z,54.19
2019-03-11T06:15:27.479Z,54.48
2019-03-11T06:17:59.051Z,54.52
2019-03-11T06:20:44.969Z,54.72
2019-03-11T06:23:16.553Z,55.54
2019-03-11T06:25:48.624Z,55.04
2019-03-11T06:28:20.321Z,55.37
2019-03-11T06:30:52.679Z,55.25
2019-03-11T06:33:24.347Z,55.41
2019-03-11T06:35:56.266Z,54.03
2019-03-11T06:38:28.375Z,53.64
2019-03-11T06:41:00.423Z,53.82
2019-03-11T06:43:32.749Z,53.08
2019-03-11T06:46:04.685Z,52.14
2019-03-11T06:48:36.383Z,52.20
2019-03-11T06:51:08.055Z,52.49
2019-03-11T06:53:39.801Z,52.21
2019-03-11T06:56:11.571Z,52.27
2019-03-11T06:58:43.124Z,51.99
2019-03-11T07:01:14.987Z,51.93
2019-03-11T07:03:47.828Z,51.18
2019-03-11T07:06:19.664Z,50.62
2019-03-11T07:08:51.210Z,50.66
2019-03-11T07:11:22.983Z,51.13
2019-03-11T07:13:54.810Z,49.86
2019-03-11T07:16:26.515Z,50.18
2019-03-11T07:18:59.402Z,49.49
2019-03-11T07:21:31.086Z,49.19
2019-03-11T07:24:02.581Z,48.94
2019-03-11T07:26:34.258Z,49.65
2019-03-11T07:29:05.931Z,48.92
2019-03-11T07:31:37.774Z,48.76
2019-03-11T07:34:09.467Z,49.14
2019-03-11T07:36:41.191Z,49.15
2019-03-11T07:39:12.751Z,48.12
2019-03-11T07:41:44.391Z,47.96
2019-03-11T07:44:15.991Z,47.46
2019-03-11T07:46:47.721Z,48.19
2019-03-11T07:49:19.523Z,48.18
2019-03-11T07:51:51.203Z,47.99
2019-03-11T07:54:35.302Z,47.91
2019-03-11T07:56:57.752Z,47.16
2019-03-11T07:59:33.553Z,46.52
2019-03-11T08:02:05.115Z,47.05
2019-03-11T08:04:36.852Z,46.00
2019-03-11T08:07:08.628Z,46.95
2019-03-11T08:09:40.302Z,46.01
2019-03-11T08:12:11.891Z,45.68
2019-03-11T08:14:43.658Z,46.06
2019-03-11T08:17:15.458Z,45.50
2019-03-11T08:19:47.085Z,45.71
2019-03-11T08:22:18.634Z,45.98
2019-03-11T08:24:50.143Z,46.08
2019-03-11T08:27:21.789Z,44.97
2019-03-11T08:29:53.386Z,45.50
2019-03-11T08:32:25.013Z,44.97
2019-03-11T08:34:56.671Z,45.70
2019-03-11T08:37:28.204Z,46.18
2019-03-11T08:39:59.821Z,45.34
2019-03-11T08:42:31.516Z,46.21
2019-03-11T08:45:03.209Z,46.04
2019-03-11T08:47:34.937Z,47.59
2019-03-11T08:50:08.071Z,47.15
2019-03-11T08:52:39.525Z,48.05
2019-03-11T08:55:11.955Z,48.92
2019-03-11T08:57:43.668Z,48.80
2019-03-11T09:00:15.666Z,46.92
2019-03-11T09:02:47.401Z,45.34
2019-03-11T09:05:19.636Z,45.55
2019-03-11T09:07:51.396Z,45.84
2019-03-11T09:10:23.189Z,44.65
2019-03-11T09:12:54.816Z,45.25
2019-03-11T09:15:26.841Z,44.46
2019-03-11T09:17:58.421Z,43.40
2019-03-11T09:20:32.797Z,43.19
2019-03-11T09:23:04.516Z,42.31
2019-03-11T09:25:37.444Z,42.26
2019-03-11T09:28:09.111Z,42.56
2019-03-11T09:30:40.845Z,40.60
2019-03-11T09:33:13.083Z,40.35
2019-03-11T09:35:44.608Z,39.60
2019-03-11T09:38:16.416Z,40.58
2019-03-11T09:40:48.086Z,40.66
2019-03-11T09:43:19.874Z,41.16
2019-03-11T09:45:51.503Z,40.37
2019-03-11T09:48:23.332Z,40.55
2019-03-11T09:50:55.131Z,41.86
2019-03-11T09:53:26.858Z,40.90
2019-03-11T09:55:58.604Z,41.27
2019-03-11T09:58:31.444Z,40.58
2019-03-11T10:01:03.086Z,39.04
2019-03-11T10:03:34.750Z,38.75
2019-03-11T10:06:07.869Z,40.01
2019-03-11T10:08:39.512Z,38.72
2019-03-11T10:11:11.169Z,38.34
2019-03-11T10:13:42.825Z,37.54
2019-03-11T10:16:14.381Z,37.61
2019-03-11T10:18:46.450Z,38.44
2019-03-11T10:21:18.175Z,39.09
2019-03-11T10:23:49.918Z,37.90
2019-03-11T10:26:21.656Z,37.90
2019-03-11T10:28:53.336Z,37.80
2019-03-11T10:31:24.985Z,37.41
2019-03-11T10:33:56.739Z,37.54
2019-03-11T10:36:29.629Z,37.24
2019-03-11T10:39:01.507Z,36.93
2019-03-11T10:41:34.806Z,36.86
2019-03-11T10:44:06.657Z,36.00
2019-03-11T10:46:39.482Z,36.10
2019-03-11T10:49:13.641Z,35.92
2019-03-11T10:51:45.453Z,37.33
2019-03-11T10:54:17.181Z,38.21
2019-03-11T10:56:48.898Z,39.17
2019-03-11T10:59:20.648Z,39.49
2019-03-11T11:01:52.274Z,40.11
2019-03-11T11:04:24.024Z,39.73
2019-03-11T11:06:55.701Z,40.23
2019-03-11T11:09:27.273Z,41.21
2019-03-11T11:11:59.073Z,41.76
2019-03-11T11:14:30.729Z,41.45
2019-03-11T11:17:02.515Z,41.05
2019-03-11T11:19:35.293Z,39.59
2019-03-11T11:22:07.239Z,39.53
2019-03-11T11:24:38.935Z,39.48
2019-03-11T11:27:11.989Z,38.29
2019-03-11T11:29:43.689Z,38.02
2019-03-11T11:32:15.306Z,38.59
2019-03-11T11:34:47.103Z,38.98
2019-03-11T11:37:18.979Z,40.11
2019-03-11T11:39:51.151Z,39.29
2019-03-11T11:42:22.882Z,39.07
2019-03-11T11:44:54.622Z,39.06
2019-03-11T11:47:26.311Z,39.35
2019-03-11T11:49:58.194Z,39.07
2019-03-11T11:52:30.050Z,39.96
2019-03-11T11:55:02.039Z,40.08
2019-03-11T11:57:33.988Z,40.36
2019-03-11T12:00:07.175Z,40.76
2019-03-11T12:02:39.042Z,40.62
2019-03-11T12:05:12.300Z,41.15
2019-03-11T12:07:44.180Z,42.00
2019-03-11T12:10:17.253Z,41.94
2019-03-11T12:12:49.191Z,42.18
2019-03-11T12:15:21.205Z,42.64
2019-03-11T12:17:52.873Z,41.19
2019-03-11T12:20:25.050Z,40.64
2019-03-11T12:22:56.881Z,40.46
2019-03-11T12:25:28.789Z,41.09
2019-03-11T12:28:03.159Z,41.53
2019-03-11T12:30:35.068Z,40.82
2019-03-11T12:33:06.865Z,40.73
2019-03-11T12:35:38.651Z,41.16
2019-03-11T12:38:10.474Z,41.71
2019-03-11T12:40:42.205Z,42.33
2019-03-11T12:43:13.869Z,42.59
2019-03-11T12:45:45.695Z,42.69
2019-03-11T12:48:17.384Z,43.09
2019-03-11T12:50:49.125Z,43.70
2019-03-11T12:53:20.910Z,44.31
2019-03-11T12:55:52.700Z,43.99
2019-03-11T12:58:24.584Z,42.54
2019-03-11T13:00:56.401Z,43.19
2019-03-11T13:03:28.328Z,43.07
2019-03-11T13:06:00.177Z,43.43
2019-03-11T13:08:31.981Z,43.71
2019-03-11T13:11:05.212Z,43.82
2019-03-11T13:13:37.087Z,44.01
2019-03-11T13:16:08.818Z,43.80
2019-03-11T13:18:42.691Z,43.59
2019-03-11T13:21:17.794Z,43.50
2019-03-11T13:23:49.634Z,43.61
2019-03-11T13:26:21.343Z,43.26
2019-03-11T13:28:53.018Z,43.70
2019-03-11T13:31:24.801Z,44.06
2019-03-11T13:33:56.656Z,43.46
2019-03-11T13:36:28.429Z,43.41
2019-03-11T13:39:01.322Z,43.67
2019-03-11T13:41:34.596Z,43.49
2019-03-11T13:44:06.447Z,43.77
2019-03-11T13:46:38.117Z,44.67
2019-03-11T13:49:09.893Z,45.01
2019-03-11T13:51:42.614Z,44.39
2019-03-11T13:54:15.635Z,43.90
2019-03-11T13:56:47.264Z,44.19
2019-03-11T13:59:19.561Z,44.20
2019-03-11T14:01:51.221Z,43.96
2019-03-11T14:04:23.072Z,43.99
2019-03-11T14:06:54.866Z,43.78
2019-03-11T14:09:26.603Z,44.10
2019-03-11T14:11:59.625Z,44.33
2019-03-11T14:14:31.453Z,43.91
2019-03-11T14:17:03.192Z,44.30
2019-03-11T14:19:35.001Z,44.75
2019-03-11T14:22:06.728Z,44.99
2019-03-11T14:24:38.427Z,44.95
2019-03-11T14:27:10.216Z,45.32
2019-03-11T14:29:41.924Z,45.56
2019-03-11T14:32:14.562Z,46.21
2019-03-11T14:34:46.500Z,46.06
2019-03-11T14:37:18.129Z,45.99
2019-03-11T14:39:49.839Z,46.23
2019-03-11T14:42:21.508Z,46.30
2019-03-11T14:44:53.327Z,46.56
2019-03-11T14:47:26.526Z,46.71
2019-03-11T14:49:58.379Z,46.98
2019-03-11T14:52:29.977Z,46.95
2019-03-11T14:55:01.746Z,46.96
2019-03-11T14:57:34.873Z,46.89
2019-03-11T15:00:07.834Z,46.88
2019-03-11T15:02:39.557Z,46.91
2019-03-11T15:05:12.463Z,46.75
2019-03-11T15:07:44.176Z,47.44
2019-03-11T15:10:16.279Z,47.82
2019-03-11T15:12:48.505Z,48.05
2019-03-11T15:15:20.791Z,47.84
2019-03-11T15:17:52.519Z,47.83
2019-03-11T15:20:24.230Z,48.24
2019-03-11T15:23:05.992Z,48.04
2019-03-11T15:25:29.145Z,48.26
2019-03-11T15:28:00.923Z,48.77
2019-03-11T15:30:32.594Z,48.92
2019-03-11T15:33:04.236Z,49.04
2019-03-11T15:35:36.002Z,49.36
2019-03-11T15:38:07.573Z,49.71
2019-03-11T15:40:39.318Z,49.65
2019-03-11T15:43:10.977Z,49.72
2019-03-11T15:45:42.676Z,49.98
2019-03-11T15:48:14.696Z,50.11
2019-03-11T15:50:46.554Z,50.08
2019-03-11T15:53:18.572Z,50.36
2019-03-11T15:55:50.422Z,50.85
2019-03-11T15:58:22.269Z,51.00
2019-03-11T16:00:54.227Z,51.00
2019-03-11T16:03:35.925Z,51.17
2019-03-11T16:05:59.650Z,51.44
2019-03-11T16:08:31.333Z,51.60
2019-03-11T16:11:02.996Z,51.74
2019-03-11T16:13:34.707Z,51.87
2019-03-11T16:16:06.246Z,52.29
2019-03-11T16:18:37.968Z,52.48
2019-03-11T16:21:09.911Z,52.71
2019-03-11T16:23:41.532Z,52.91
2019-03-11T16:26:13.242Z,52.71
2019-03-11T16:28:48.277Z,52.70
2019-03-11T16:31:19.529Z,53.09
2019-03-11T16:33:51.258Z,53.05
2019-03-11T16:36:24.204Z,53.40
2019-03-11T16:38:55.833Z,53.40
2019-03-11T16:41:27.496Z,53.73
2019-03-11T16:43:59.256Z,53.62
2019-03-11T16:46:30.986Z,53.54
2019-03-11T16:49:02.580Z,53.51
2019-03-11T16:51:34.476Z,53.53
2019-03-11T16:54:05.998Z,53.70
2019-03-11T16:56:38.011Z,53.70
2019-03-11T16:59:09.946Z,53.85
2019-03-11T17:01:42.964Z,54.02
2019-03-11T17:04:14.891Z,54.10
2019-03-11T17:06:46.672Z,54.22
2019-03-11T17:09:18.376Z,55.12
2019-03-11T17:11:50.127Z,55.83
2019-03-11T17:14:21.891Z,56.86
2019-03-11T17:16:53.506Z,57.80
2019-03-11T17:19:25.207Z,58.15
2019-03-11T17:21:56.797Z,58.75
2019-03-11T17:24:28.512Z,59.23
2019-03-11T17:27:00.331Z,58.82
2019-03-11T17:29:32.004Z,58.72
2019-03-11T17:32:03.881Z,58.45
2019-03-11T17:34:35.800Z,58.88
2019-03-11T17:37:07.410Z,59.25
2019-03-11T17:39:39.123Z,59.95
2019-03-11T17:42:10.946Z,60.73
2019-03-11T17:44:42.599Z,60.46
2019-03-11T17:47:14.353Z,60.71
2019-03-11T17:49:46.143Z,60.98
2019-03-11T17:52:17.844Z,61.11
2019-03-11T17:54:50.865Z,61.29
2019-03-11T17:57:22.775Z,60.88
2019-03-11T17:59:54.596Z,60.69
2019-03-11T18:02:26.557Z,60.99
2019-03-11T18:04:59.516Z,61.26
2019-03-11T18:07:31.244Z,61.01
2019-03-11T18:10:02.992Z,61.20
2019-03-11T18:12:35.613Z,61.34
2019-03-11T18:15:07.582Z,61.16
2019-03-11T18:17:39.350Z,60.95
2019-03-11T18:20:12.247Z,60.51
2019-03-11T18:22:44.071Z,60.14
2019-03-11T18:25:16.822Z,60.29
2019-03-11T18:27:48.609Z,60.50
2019-03-11T18:30:21.071Z,60.17
2019-03-11T18:32:52.718Z,60.10
2019-03-11T18:35:24.273Z,59.88
2019-03-11T18:38:03.925Z,59.71
2019-03-11T18:40:30.543Z,59.39
2019-03-11T18:43:02.332Z,59.49
2019-03-11T18:45:33.989Z,59.57
2019-03-11T18:48:05.774Z,60.44
2019-03-11T18:50:37.709Z,60.25
2019-03-11T18:53:09.337Z,60.45
2019-03-11T18:55:41.092Z,60.11
2019-03-11T18:58:12.978Z,60.65
2019-03-11T19:00:44.780Z,60.86
2019-03-11T19:03:16.598Z,60.95
2019-03-11T19:05:48.194Z,60.86
2019-03-11T19:08:19.912Z,61.11
2019-03-11T19:10:51.524Z,60.64
2019-03-11T19:13:23.286Z,61.02
2019-03-11T19:15:55.993Z,61.05
2019-03-11T19:18:27.874Z,61.02
2019-03-11T19:21:01.586Z,61.02
2019-03-11T19:23:33.375Z,61.24
2019-03-11T19:26:05.276Z,61.09
2019-03-11T19:28:37.104Z,61.75
2019-03-11T19:31:08.933Z,62.04
2019-03-11T19:33:40.984Z,62.18
2019-03-11T19:36:12.720Z,63.09
2019-03-11T19:38:44.536Z,63.27
2019-03-11T19:41:16.212Z,63.70
2019-03-11T19:43:48.007Z,63.85
2019-03-11T19:46:19.891Z,64.05
2019-03-11T19:48:51.680Z,64.36
2019-03-11T19:51:25.927Z,64.94
2019-03-11T19:53:57.810Z,64.46
2019-03-11T19:56:29.682Z,64.78
2019-03-11T19:59:01.496Z,65.77
2019-03-11T20:01:33.445Z,66.46
2019-03-11T20:04:05.755Z,70.62
2019-03-11T20:06:37.663Z,70.24
2019-03-11T20:09:13.433Z,70.71
2019-03-11T20:11:45.966Z,71.92
2019-03-11T20:14:17.623Z,72.04
2019-03-11T20:16:51.048Z,72.93
2019-03-11T20:19:22.724Z,73.42
2019-03-11T20:21:54.468Z,74.97
2019-03-11T20:24:26.119Z,75.43
2019-03-11T20:26:59.309Z,74.67
2019-03-11T20:29:33.792Z,75.35
2019-03-11T20:32:04.561Z,75.38
2019-03-11T20:34:36.382Z,74.89
2019-03-11T20:37:07.925Z,73.42
2019-03-11T20:39:39.691Z,72.37
2019-03-11T20:42:12.581Z,72.10
2019-03-11T20:44:44.328Z,71.68
2019-03-11T20:47:15.928Z,71.25
2019-03-11T20:49:48.017Z,71.64
2019-03-11T20:52:20.053Z,72.07
2019-03-11T20:54:52.140Z,72.16
2019-03-11T20:57:24.056Z,72.82
2019-03-11T20:59:55.983Z,73.30
2019-03-11T21:02:28.568Z,73.63
2019-03-11T21:05:04.576Z,73.98
2019-03-11T21:07:36.553Z,73.94
2019-03-11T21:10:10.164Z,74.21
2019-03-11T21:12:42.235Z,74.34
2019-03-11T21:15:15.539Z,73.74
2019-03-11T21:17:47.294Z,73.16
2019-03-11T21:20:19.057Z,72.39
2019-03-11T21:22:50.862Z,70.40
2019-03-11T21:25:22.592Z,70.18
2019-03-11T21:27:54.894Z,71.05
2019-03-11T21:30:26.559Z,71.45
2019-03-11T21:32:58.247Z,73.53
2019-03-11T21:35:29.887Z,75.76
2019-03-11T21:38:01.510Z,76.20
2019-03-11T21:40:33.358Z,78.05
2019-03-11T21:43:05.121Z,81.53
2019-03-11T21:45:36.765Z,84.51
2019-03-11T21:48:08.656Z,85.91
2019-03-11T21:50:40.267Z,87.89
2019-03-11T21:53:11.938Z,90.74
2019-03-11T21:55:43.864Z,95.44
2019-03-11T21:58:15.645Z,98.65
2019-03-11T22:00:47.239Z,100.00
2019-03-11T22:03:18.906Z,100.00
2019-03-11T22:05:51.592Z,100.00
2019-03-11T22:08:23.299Z,100.00
2019-03-11T22:10:54.888Z,100.00
2019-03-11T22:13:26.574Z,100.00
2019-03-11T22:15:58.988Z,100.00
2019-03-11T22:18:30.710Z,100.00
2019-03-11T22:21:02.489Z,100.00
2019-03-11T22:23:34.120Z,100.00
2019-03-11T22:26:05.711Z,100.00
2019-03-11T22:28:37.280Z,100.00
2019-03-11T22:31:08.894Z,100.00
2019-03-11T22:33:40.483Z,100.00
2019-03-11T22:36:12.037Z,100.00
2019-03-11T22:38:43.669Z,100.00
2019-03-11T22:41:15.385Z,100.00
2019-03-11T22:43:47.062Z,100.00
2019-03-11T22:46:20.308Z,100.00
2019-03-11T22:48:52.143Z,100.00
2019-03-11T22:51:23.728Z,100.00
2019-03-11T22:53:55.321Z,100.00
2019-03-11T22:56:26.912Z,100.00
2019-03-11T22:58:58.685Z,100.00
2019-03-11T23:01:30.622Z,100.00
2019-03-11T23:04:02.423Z,100.00
2019-03-11T23:06:34.163Z,100.00
2019-03-11T23:09:06.749Z,100.00
2019-03-11T23:11:39.846Z,100.00
2019-03-11T23:14:11.712Z,100.00
2019-03-11T23:16:43.438Z,100.00
2019-03-11T23:19:15.061Z,100.00
2019-03-11T23:21:46.760Z,100.00
2019-03-11T23:24:18.383Z,100.00
2019-03-11T23:26:50.140Z,100.00
2019-03-11T23:29:21.812Z,100.00
2019-03-11T23:31:53.630Z,100.00
2019-03-11T23:34:26.419Z,100.00
2019-03-11T23:36:58.213Z,100.00
2019-03-11T23:39:29.933Z,100.00
2019-03-11T23:42:03.125Z,100.00
2019-03-11T23:44:34.803Z,100.00
2019-03-11T23:47:06.447Z,100.00
2019-03-11T23:49:38.637Z,100.00
2019-03-11T23:52:10.346Z,100.00
2019-03-11T23:54:42.199Z,100.00
2019-03-11T23:57:13.827Z,100.00
2019-03-11T23:59:45.444Z,100.00
